sensor_id;sensor_type;location;lat;lon;timestamp;pressure;altitude;pressure_sealevel;temperature;humidity
33697;BME280;20031;43.416;23.232;2022-08-19T00:00:01;99494.34;;;24.46;58.03
33697;BME280;20031;43.416;23.232;2022-08-19T00:02:26;99494.34;;;24.46;57.79
33697;BME280;20031;43.416;23.232;2022-08-19T00:04:52;99493.28;;;24.42;58.17
33697;BME280;20031;43.416;23.232;2022-08-19T00:07:20;99489.53;;;24.43;58.03
33697;BME280;20031;43.416;23.232;2022-08-19T00:09:46;99489.25;;;24.40;58.07
33697;BME280;20031;43.416;23.232;2022-08-19T00:12:12;99498.03;;;24.40;58.04
33697;BME280;20031;43.416;23.232;2022-08-19T00:14:39;99496.97;;;24.41;58.92
33697;BME280;20031;43.416;23.232;2022-08-19T00:17:07;99489.25;;;24.40;59.00
33697;BME280;20031;43.416;23.232;2022-08-19T00:19:33;99503.09;;;24.42;58.69
33697;BME280;20031;43.416;23.232;2022-08-19T00:21:59;99502.56;;;24.40;59.27
33697;BME280;20031;43.416;23.232;2022-08-19T00:24:25;99502.03;;;24.38;59.04
33697;BME280;20031;43.416;23.232;2022-08-19T00:26:52;99500.44;;;24.37;58.86
33697;BME280;20031;43.416;23.232;2022-08-19T00:29:19;99497.78;;;24.37;59.24
33697;BME280;20031;43.416;23.232;2022-08-19T00:31:46;99495.91;;;24.37;58.92
33697;BME280;20031;43.416;23.232;2022-08-19T00:34:13;99492.38;;;24.32;58.83
33697;BME280;20031;43.416;23.232;2022-08-19T00:36:39;99484.91;;;24.29;58.60
33697;BME280;20031;43.416;23.232;2022-08-19T00:39:05;99493.16;;;24.27;58.42
33697;BME280;20031;43.416;23.232;2022-08-19T00:41:31;99496.06;;;24.21;58.17
33697;BME280;20031;43.416;23.232;2022-08-19T00:44:18;99498.16;;;24.14;58.23
33697;BME280;20031;43.416;23.232;2022-08-19T00:46:47;99494.66;;;24.09;58.21
33697;BME280;20031;43.416;23.232;2022-08-19T00:49:23;99497.84;;;24.06;58.77
33697;BME280;20031;43.416;23.232;2022-08-19T00:51:55;99486.91;;;24.02;59.37
33697;BME280;20031;43.416;23.232;2022-08-19T00:54:22;99489.81;;;24.01;59.56
33697;BME280;20031;43.416;23.232;2022-08-19T00:56:48;99483.91;;;23.89;60.38
33697;BME280;20031;43.416;23.232;2022-08-19T00:59:16;99483.38;;;23.87;60.48
33697;BME280;20031;43.416;23.232;2022-08-19T01:01:44;99486.56;;;23.84;60.92
33697;BME280;20031;43.416;23.232;2022-08-19T01:04:11;99499.31;;;23.82;61.08
33697;BME280;20031;43.416;23.232;2022-08-19T01:06:38;99492.34;;;23.76;61.43
33697;BME280;20031;43.416;23.232;2022-08-19T01:09:06;99499.81;;;23.74;61.93
33697;BME280;20031;43.416;23.232;2022-08-19T01:11:35;99504.81;;;23.70;61.51
33697;BME280;20031;43.416;23.232;2022-08-19T01:14:01;99497.59;;;23.66;62.45
33697;BME280;20031;43.416;23.232;2022-08-19T01:16:28;99494.38;;;23.64;62.13
33697;BME280;20031;43.416;23.232;2022-08-19T01:18:55;99499.13;;;23.62;62.44
33697;BME280;20031;43.416;23.232;2022-08-19T01:21:31;99503.09;;;23.59;62.56
33697;BME280;20031;43.416;23.232;2022-08-19T01:23:58;99506.75;;;23.49;62.96
33697;BME280;20031;43.416;23.232;2022-08-19T01:26:25;99495.28;;;23.43;63.15
33697;BME280;20031;43.416;23.232;2022-08-19T01:28:53;99501.63;;;23.42;63.35
33697;BME280;20031;43.416;23.232;2022-08-19T01:31:29;99504.22;;;23.32;64.29
33697;BME280;20031;43.416;23.232;2022-08-19T01:33:56;99498.56;;;23.24;64.53
33697;BME280;20031;43.416;23.232;2022-08-19T01:36:49;99508.91;;;23.20;64.48
33697;BME280;20031;43.416;23.232;2022-08-19T01:39:23;99506.19;;;23.15;64.74
33697;BME280;20031;43.416;23.232;2022-08-19T01:41:49;99510.91;;;23.08;64.63
33697;BME280;20031;43.416;23.232;2022-08-19T01:44:16;99509.50;;;23.01;65.20
33697;BME280;20031;43.416;23.232;2022-08-19T01:46:47;99517.72;;;23.00;65.33
33697;BME280;20031;43.416;23.232;2022-08-19T01:49:12;99518.22;;;22.97;65.43
33697;BME280;20031;43.416;23.232;2022-08-19T01:51:38;99508.88;;;22.94;65.31
33697;BME280;20031;43.416;23.232;2022-08-19T01:54:04;99508.59;;;22.91;65.41
33697;BME280;20031;43.416;23.232;2022-08-19T01:56:29;99504.84;;;22.92;65.45
33697;BME280;20031;43.416;23.232;2022-08-19T01:59:00;99501.16;;;22.93;65.48
33697;BME280;20031;43.416;23.232;2022-08-19T02:01:27;99498.59;;;22.98;65.70
33697;BME280;20031;43.416;23.232;2022-08-19T02:03:54;99493.28;;;22.98;65.85
33697;BME280;20031;43.416;23.232;2022-08-19T02:06:20;99493.53;;;22.96;66.18
33697;BME280;20031;43.416;23.232;2022-08-19T02:08:46;99504.44;;;23.00;66.07
33697;BME280;20031;43.416;23.232;2022-08-19T02:11:29;99495.38;;;22.96;65.97
33697;BME280;20031;43.416;23.232;2022-08-19T02:13:56;99497.13;;;22.90;65.94
33697;BME280;20031;43.416;23.232;2022-08-19T02:16:23;99500.34;;;22.92;66.47
33697;BME280;20031;43.416;23.232;2022-08-19T02:18:49;99497.44;;;22.94;66.30
33697;BME280;20031;43.416;23.232;2022-08-19T02:21:17;99504.31;;;22.90;65.94
33697;BME280;20031;43.416;23.232;2022-08-19T02:23:43;99502.66;;;22.84;66.41
33697;BME280;20031;43.416;23.232;2022-08-19T02:26:09;99502.91;;;22.82;67.05
33697;BME280;20031;43.416;23.232;2022-08-19T02:28:34;99511.91;;;22.81;66.96
33697;BME280;20031;43.416;23.232;2022-08-19T02:31:02;99508.75;;;22.84;66.93
33697;BME280;20031;43.416;23.232;2022-08-19T02:33:28;99508.16;;;22.77;66.99
33697;BME280;20031;43.416;23.232;2022-08-19T02:35:53;99509.53;;;22.80;66.81
33697;BME280;20031;43.416;23.232;2022-08-19T02:38:19;99512.69;;;22.77;67.00
33697;BME280;20031;43.416;23.232;2022-08-19T02:40:54;99501.50;;;22.75;67.20
33697;BME280;20031;43.416;23.232;2022-08-19T02:43:20;99509.97;;;22.72;67.09
33697;BME280;20031;43.416;23.232;2022-08-19T02:45:46;99510.78;;;22.72;67.42
33697;BME280;20031;43.416;23.232;2022-08-19T02:48:15;99510.94;;;22.66;66.69
33697;BME280;20031;43.416;23.232;2022-08-19T02:50:42;99528.63;;;22.56;66.71
33697;BME280;20031;43.416;23.232;2022-08-19T02:53:08;99521.91;;;22.48;67.42
33697;BME280;20031;43.416;23.232;2022-08-19T02:55:34;99528.25;;;22.47;67.36
33697;BME280;20031;43.416;23.232;2022-08-19T02:57:59;99531.72;;;22.48;67.09
33697;BME280;20031;43.416;23.232;2022-08-19T03:00:26;99526.88;;;22.45;67.15
33697;BME280;20031;43.416;23.232;2022-08-19T03:02:52;99526.66;;;22.46;67.90
33697;BME280;20031;43.416;23.232;2022-08-19T03:05:17;99531.78;;;22.53;67.49
33697;BME280;20031;43.416;23.232;2022-08-19T03:07:43;99529.13;;;22.53;67.14
33697;BME280;20031;43.416;23.232;2022-08-19T03:10:08;99524.84;;;22.52;67.34
33697;BME280;20031;43.416;23.232;2022-08-19T03:12:38;99526.72;;;22.51;67.52
33697;BME280;20031;43.416;23.232;2022-08-19T03:15:05;99532.28;;;22.50;67.46
33697;BME280;20031;43.416;23.232;2022-08-19T03:17:32;99539.38;;;22.44;67.90
33697;BME280;20031;43.416;23.232;2022-08-19T03:19:58;99537.75;;;22.43;68.23
33697;BME280;20031;43.416;23.232;2022-08-19T03:22:23;99544.34;;;22.41;67.80
33697;BME280;20031;43.416;23.232;2022-08-19T03:24:50;99540.53;;;22.32;68.06
33697;BME280;20031;43.416;23.232;2022-08-19T03:27:16;99540.16;;;22.23;68.26
33697;BME280;20031;43.416;23.232;2022-08-19T03:29:43;99536.03;;;22.16;68.50
33697;BME280;20031;43.416;23.232;2022-08-19T03:32:09;99543.72;;;22.12;68.63
33697;BME280;20031;43.416;23.232;2022-08-19T03:34:36;99537.44;;;22.02;68.96
33697;BME280;20031;43.416;23.232;2022-08-19T03:37:09;99536.00;;;21.95;69.82
33697;BME280;20031;43.416;23.232;2022-08-19T03:39:37;99545.97;;;21.88;69.42
33697;BME280;20031;43.416;23.232;2022-08-19T03:42:03;99542.19;;;21.84;69.74
33697;BME280;20031;43.416;23.232;2022-08-19T03:44:29;99543.72;;;21.80;69.97
33697;BME280;20031;43.416;23.232;2022-08-19T03:46:57;99545.59;;;21.79;70.47
33697;BME280;20031;43.416;23.232;2022-08-19T03:49:25;99548.00;;;21.81;70.21
33697;BME280;20031;43.416;23.232;2022-08-19T03:51:53;99547.50;;;21.84;70.65
33697;BME280;20031;43.416;23.232;2022-08-19T03:54:21;99548.97;;;21.91;70.55
33697;BME280;20031;43.416;23.232;2022-08-19T03:56:50;99554.41;;;22.01;70.34
33697;BME280;20031;43.416;23.232;2022-08-19T03:59:23;99561.44;;;22.12;70.15
33697;BME280;20031;43.416;23.232;2022-08-19T04:01:50;99566.09;;;22.21;69.83
33697;BME280;20031;43.416;23.232;2022-08-19T04:04:16;99553.25;;;22.30;68.93
33697;BME280;20031;43.416;23.232;2022-08-19T04:06:43;99559.19;;;22.37;68.88
33697;BME280;20031;43.416;23.232;2022-08-19T04:09:10;99559.06;;;22.48;69.06
33697;BME280;20031;43.416;23.232;2022-08-19T04:11:42;99567.22;;;22.63;69.05
33697;BME280;20031;43.416;23.232;2022-08-19T04:14:14;99571.59;;;22.74;68.74
33697;BME280;20031;43.416;23.232;2022-08-19T04:16:40;99575.41;;;22.83;68.03
33697;BME280;20031;43.416;23.232;2022-08-19T04:19:06;99574.44;;;22.89;67.95
33697;BME280;20031;43.416;23.232;2022-08-19T04:21:32;99572.16;;;22.97;67.71
33697;BME280;20031;43.416;23.232;2022-08-19T04:23:58;99577.41;;;23.13;67.35
33697;BME280;20031;43.416;23.232;2022-08-19T04:26:29;99582.31;;;23.26;66.26
33697;BME280;20031;43.416;23.232;2022-08-19T04:29:04;99583.72;;;23.34;66.11
33697;BME280;20031;43.416;23.232;2022-08-19T04:31:31;99582.75;;;23.45;65.66
33697;BME280;20031;43.416;23.232;2022-08-19T04:34:02;99587.91;;;23.56;64.87
33697;BME280;20031;43.416;23.232;2022-08-19T04:36:30;99581.56;;;23.62;64.53
33697;BME280;20031;43.416;23.232;2022-08-19T04:38:59;99586.03;;;23.52;63.88
33697;BME280;20031;43.416;23.232;2022-08-19T04:41:25;99589.44;;;23.47;64.12
33697;BME280;20031;43.416;23.232;2022-08-19T04:44:10;99589.13;;;23.44;64.71
33697;BME280;20031;43.416;23.232;2022-08-19T04:46:36;99583.00;;;23.43;64.91
33697;BME280;20031;43.416;23.232;2022-08-19T04:49:04;99592.63;;;23.49;64.97
33697;BME280;20031;43.416;23.232;2022-08-19T04:51:31;99585.44;;;23.50;64.67
33697;BME280;20031;43.416;23.232;2022-08-19T04:53:57;99591.03;;;23.48;64.85
33697;BME280;20031;43.416;23.232;2022-08-19T04:56:24;99586.72;;;23.42;65.49
33697;BME280;20031;43.416;23.232;2022-08-19T04:58:53;99594.75;;;23.47;65.41
33697;BME280;20031;43.416;23.232;2022-08-19T05:01:21;99588.69;;;23.52;65.71
33697;BME280;20031;43.416;23.232;2022-08-19T05:03:47;99588.97;;;23.55;65.75
33697;BME280;20031;43.416;23.232;2022-08-19T05:06:15;99595.94;;;23.61;64.69
33697;BME280;20031;43.416;23.232;2022-08-19T05:08:42;99590.91;;;23.64;64.55
33697;BME280;20031;43.416;23.232;2022-08-19T05:11:19;99600.03;;;23.68;64.30
33697;BME280;20031;43.416;23.232;2022-08-19T05:13:46;99601.97;;;23.78;64.67
33697;BME280;20031;43.416;23.232;2022-08-19T05:16:16;99614.28;;;23.89;64.04
33697;BME280;20031;43.416;23.232;2022-08-19T05:18:43;99608.84;;;24.05;63.57
33697;BME280;20031;43.416;23.232;2022-08-19T05:21:28;99601.81;;;24.30;63.01
33697;BME280;20031;43.416;23.232;2022-08-19T05:24:12;99605.94;;;24.48;62.05
33697;BME280;20031;43.416;23.232;2022-08-19T05:26:44;99612.09;;;24.53;61.24
33697;BME280;20031;43.416;23.232;2022-08-19T05:29:19;99611.69;;;24.76;61.08
33697;BME280;20031;43.416;23.232;2022-08-19T05:31:46;99611.22;;;24.89;60.57
33697;BME280;20031;43.416;23.232;2022-08-19T05:34:12;99607.56;;;25.05;60.56
33697;BME280;20031;43.416;23.232;2022-08-19T05:36:42;99611.03;;;25.15;59.59
33697;BME280;20031;43.416;23.232;2022-08-19T05:39:14;99605.75;;;25.25;59.20
33697;BME280;20031;43.416;23.232;2022-08-19T05:41:43;99598.84;;;25.49;58.65
33697;BME280;20031;43.416;23.232;2022-08-19T05:44:09;99604.75;;;25.66;58.00
33697;BME280;20031;43.416;23.232;2022-08-19T05:46:38;99599.41;;;25.90;57.11
33697;BME280;20031;43.416;23.232;2022-08-19T05:49:07;99603.94;;;26.10;56.65
33697;BME280;20031;43.416;23.232;2022-08-19T05:51:35;99608.19;;;26.25;55.33
33697;BME280;20031;43.416;23.232;2022-08-19T05:54:03;99605.03;;;26.33;55.67
33697;BME280;20031;43.416;23.232;2022-08-19T05:56:30;99603.38;;;26.42;55.62
33697;BME280;20031;43.416;23.232;2022-08-19T05:58:56;99606.31;;;26.51;55.66
33697;BME280;20031;43.416;23.232;2022-08-19T06:01:22;99600.38;;;26.64;55.54
33697;BME280;20031;43.416;23.232;2022-08-19T06:03:47;99599.50;;;26.83;55.26
33697;BME280;20031;43.416;23.232;2022-08-19T06:06:15;99596.78;;;26.98;54.86
33697;BME280;20031;43.416;23.232;2022-08-19T06:08:41;99598.84;;;27.11;53.74
33697;BME280;20031;43.416;23.232;2022-08-19T06:11:15;99597.72;;;27.22;54.07
33697;BME280;20031;43.416;23.232;2022-08-19T06:13:43;99600.63;;;27.30;53.36
33697;BME280;20031;43.416;23.232;2022-08-19T06:16:12;99605.66;;;27.36;52.99
33697;BME280;20031;43.416;23.232;2022-08-19T06:18:37;99597.84;;;27.45;51.90
33697;BME280;20031;43.416;23.232;2022-08-19T06:21:03;99601.56;;;27.54;51.87
33697;BME280;20031;43.416;23.232;2022-08-19T06:23:29;99605.44;;;27.71;51.43
33697;BME280;20031;43.416;23.232;2022-08-19T06:25:56;99608.91;;;27.72;50.89
33697;BME280;20031;43.416;23.232;2022-08-19T06:28:21;99603.50;;;27.81;50.89
33697;BME280;20031;43.416;23.232;2022-08-19T06:30:48;99606.84;;;27.97;50.42
33697;BME280;20031;43.416;23.232;2022-08-19T06:33:14;99597.44;;;27.99;50.30
33697;BME280;20031;43.416;23.232;2022-08-19T06:35:41;99609.22;;;28.03;50.56
33697;BME280;20031;43.416;23.232;2022-08-19T06:38:07;99604.41;;;28.29;50.98
33697;BME280;20031;43.416;23.232;2022-08-19T06:40:33;99603.59;;;28.56;50.80
33697;BME280;20031;43.416;23.232;2022-08-19T06:42:58;99603.47;;;28.71;49.87
33697;BME280;20031;43.416;23.232;2022-08-19T06:45:25;99603.34;;;28.81;49.25
33697;BME280;20031;43.416;23.232;2022-08-19T06:47:52;99603.25;;;28.86;48.73
33697;BME280;20031;43.416;23.232;2022-08-19T06:50:24;99599.75;;;29.09;48.40
33697;BME280;20031;43.416;23.232;2022-08-19T06:52:49;99601.63;;;29.08;47.94
33697;BME280;20031;43.416;23.232;2022-08-19T06:55:15;99607.78;;;29.09;47.53
33697;BME280;20031;43.416;23.232;2022-08-19T06:57:41;99607.88;;;29.22;48.36
33697;BME280;20031;43.416;23.232;2022-08-19T07:00:09;99607.69;;;29.55;48.46
33697;BME280;20031;43.416;23.232;2022-08-19T07:02:42;99608.31;;;29.66;47.54
33697;BME280;20031;43.416;23.232;2022-08-19T07:05:07;99613.09;;;29.87;47.09
33697;BME280;20031;43.416;23.232;2022-08-19T07:07:33;99612.34;;;30.00;47.28
33697;BME280;20031;43.416;23.232;2022-08-19T07:09:59;99611.47;;;30.04;47.01
33697;BME280;20031;43.416;23.232;2022-08-19T07:12:27;99612.41;;;30.13;47.05
33697;BME280;20031;43.416;23.232;2022-08-19T07:14:53;99624.16;;;30.17;47.11
33697;BME280;20031;43.416;23.232;2022-08-19T07:17:18;99617.78;;;30.27;46.94
33697;BME280;20031;43.416;23.232;2022-08-19T07:19:45;99628.59;;;30.40;46.32
33697;BME280;20031;43.416;23.232;2022-08-19T07:22:10;99618.16;;;30.39;46.66
33697;BME280;20031;43.416;23.232;2022-08-19T07:24:37;99621.25;;;30.59;45.61
33697;BME280;20031;43.416;23.232;2022-08-19T07:27:04;99629.41;;;30.67;45.43
33697;BME280;20031;43.416;23.232;2022-08-19T07:29:31;99629.31;;;30.86;45.73
33697;BME280;20031;43.416;23.232;2022-08-19T07:31:59;99625.47;;;31.05;45.04
33697;BME280;20031;43.416;23.232;2022-08-19T07:34:25;99625.59;;;31.22;44.60
33697;BME280;20031;43.416;23.232;2022-08-19T07:36:52;99625.56;;;31.48;44.31
33697;BME280;20031;43.416;23.232;2022-08-19T07:39:23;99624.38;;;31.54;43.51
33697;BME280;20031;43.416;23.232;2022-08-19T07:41:49;99626.06;;;31.37;43.28
33697;BME280;20031;43.416;23.232;2022-08-19T07:44:17;99638.13;;;31.40;43.83
33697;BME280;20031;43.416;23.232;2022-08-19T07:46:46;99632.25;;;31.51;43.50
33697;BME280;20031;43.416;23.232;2022-08-19T07:49:13;99632.22;;;31.64;41.57
33697;BME280;20031;43.416;23.232;2022-08-19T07:51:53;99619.72;;;31.68;41.23
33697;BME280;20031;43.416;23.232;2022-08-19T07:54:20;99630.56;;;31.77;41.90
33697;BME280;20031;43.416;23.232;2022-08-19T07:56:46;99618.84;;;31.81;41.62
33697;BME280;20031;43.416;23.232;2022-08-19T07:59:12;99622.41;;;31.90;41.93
33697;BME280;20031;43.416;23.232;2022-08-19T08:01:38;99621.28;;;32.04;42.14
33697;BME280;20031;43.416;23.232;2022-08-19T08:04:06;99623.03;;;32.09;40.80
33697;BME280;20031;43.416;23.232;2022-08-19T08:06:50;99618.41;;;32.31;42.13
33697;BME280;20031;43.416;23.232;2022-08-19T08:09:37;99626.88;;;32.38;40.46
33697;BME280;20031;43.416;23.232;2022-08-19T08:12:14;99626.56;;;32.40;41.09
33697;BME280;20031;43.416;23.232;2022-08-19T08:14:44;99617.28;;;32.54;40.57
33697;BME280;20031;43.416;23.232;2022-08-19T08:17:11;99617.84;;;32.43;40.15
33697;BME280;20031;43.416;23.232;2022-08-19T08:19:38;99613.75;;;32.53;40.52
33697;BME280;20031;43.416;23.232;2022-08-19T08:22:07;99614.81;;;32.74;39.93
33697;BME280;20031;43.416;23.232;2022-08-19T08:24:33;99614.53;;;32.93;40.46
33697;BME280;20031;43.416;23.232;2022-08-19T08:27:00;99612.06;;;33.21;39.76
33697;BME280;20031;43.416;23.232;2022-08-19T08:29:27;99608.44;;;33.17;39.06
33697;BME280;20031;43.416;23.232;2022-08-19T08:31:53;99610.97;;;33.31;39.50
33697;BME280;20031;43.416;23.232;2022-08-19T08:34:19;99609.44;;;33.47;39.14
33697;BME280;20031;43.416;23.232;2022-08-19T08:36:46;99605.13;;;33.62;38.18
33697;BME280;20031;43.416;23.232;2022-08-19T08:39:17;99603.50;;;33.87;38.93
33697;BME280;20031;43.416;23.232;2022-08-19T08:47:04;99599.91;;;34.37;37.80
33697;BME280;20031;43.416;23.232;2022-08-19T08:49:47;99597.03;;;34.50;37.29
33697;BME280;20031;43.416;23.232;2022-08-19T08:52:37;99594.00;;;34.52;37.24
33697;BME280;20031;43.416;23.232;2022-08-19T08:55:13;99584.75;;;34.53;36.91
33697;BME280;20031;43.416;23.232;2022-08-19T09:00:18;99576.78;;;34.93;36.81
33697;BME280;20031;43.416;23.232;2022-08-19T09:02:46;99584.19;;;35.05;36.10
33697;BME280;20031;43.416;23.232;2022-08-19T09:05:12;99577.38;;;35.19;35.17
33697;BME280;20031;43.416;23.232;2022-08-19T09:08:15;99574.00;;;35.22;36.00
33697;BME280;20031;43.416;23.232;2022-08-19T09:10:53;99574.56;;;35.07;35.67
33697;BME280;20031;43.416;23.232;2022-08-19T09:13:31;99572.81;;;35.31;35.43
33697;BME280;20031;43.416;23.232;2022-08-19T09:16:25;99570.03;;;35.19;35.82
33697;BME280;20031;43.416;23.232;2022-08-19T09:18:58;99568.53;;;35.51;35.52
33697;BME280;20031;43.416;23.232;2022-08-19T09:21:25;99559.69;;;35.74;35.27
33697;BME280;20031;43.416;23.232;2022-08-19T09:23:52;99565.63;;;35.88;34.62
33697;BME280;20031;43.416;23.232;2022-08-19T09:26:20;99561.28;;;36.07;34.26
33697;BME280;20031;43.416;23.232;2022-08-19T09:28:48;99555.44;;;36.29;34.38
33697;BME280;20031;43.416;23.232;2022-08-19T09:31:16;99555.47;;;36.41;33.58
33697;BME280;20031;43.416;23.232;2022-08-19T09:33:42;99560.66;;;36.34;33.85
33697;BME280;20031;43.416;23.232;2022-08-19T09:36:13;99549.69;;;36.42;33.76
33697;BME280;20031;43.416;23.232;2022-08-19T09:38:39;99555.81;;;36.51;33.54
33697;BME280;20031;43.416;23.232;2022-08-19T09:41:15;99552.63;;;36.61;32.90
33697;BME280;20031;43.416;23.232;2022-08-19T09:43:44;99552.16;;;36.71;33.96
33697;BME280;20031;43.416;23.232;2022-08-19T09:46:10;99546.44;;;36.84;33.03
33697;BME280;20031;43.416;23.232;2022-08-19T09:48:40;99543.03;;;36.87;32.45
33697;BME280;20031;43.416;23.232;2022-08-19T09:51:09;99545.75;;;36.87;33.58
33697;BME280;20031;43.416;23.232;2022-08-19T09:53:36;99549.41;;;37.07;32.95
33697;BME280;20031;43.416;23.232;2022-08-19T09:56:04;99538.66;;;37.22;32.81
33697;BME280;20031;43.416;23.232;2022-08-19T09:58:30;99538.84;;;37.29;32.92
33697;BME280;20031;43.416;23.232;2022-08-19T10:00:57;99538.16;;;37.32;32.05
33697;BME280;20031;43.416;23.232;2022-08-19T10:03:24;99532.78;;;37.20;32.23
33697;BME280;20031;43.416;23.232;2022-08-19T10:05:50;99522.91;;;37.16;32.17
33697;BME280;20031;43.416;23.232;2022-08-19T10:08:36;99530.06;;;37.20;31.48
33697;BME280;20031;43.416;23.232;2022-08-19T10:11:03;99516.91;;;37.22;31.66
33697;BME280;20031;43.416;23.232;2022-08-19T10:13:30;99516.47;;;37.47;31.05
33697;BME280;20031;43.416;23.232;2022-08-19T10:16:04;99507.31;;;37.67;30.61
33697;BME280;20031;43.416;23.232;2022-08-19T10:18:30;99504.53;;;37.64;30.64
33697;BME280;20031;43.416;23.232;2022-08-19T10:21:14;99509.19;;;37.79;30.60
33697;BME280;20031;43.416;23.232;2022-08-19T10:23:45;99513.94;;;37.97;30.50
33697;BME280;20031;43.416;23.232;2022-08-19T10:26:13;99505.47;;;38.14;29.87
33697;BME280;20031;43.416;23.232;2022-08-19T10:28:39;99502.28;;;38.27;31.28
33697;BME280;20031;43.416;23.232;2022-08-19T10:31:11;99499.31;;;38.17;29.71
33697;BME280;20031;43.416;23.232;2022-08-19T10:33:38;99507.56;;;38.20;29.54
33697;BME280;20031;43.416;23.232;2022-08-19T10:36:08;99494.66;;;38.17;29.04
33697;BME280;20031;43.416;23.232;2022-08-19T10:38:35;99493.66;;;38.40;29.83
33697;BME280;20031;43.416;23.232;2022-08-19T10:41:13;99494.34;;;38.53;29.28
33697;BME280;20031;43.416;23.232;2022-08-19T10:43:40;99498.78;;;38.57;28.73
33697;BME280;20031;43.416;23.232;2022-08-19T10:46:08;99491.41;;;38.77;28.69
33697;BME280;20031;43.416;23.232;2022-08-19T10:48:35;99501.16;;;38.78;28.55
33697;BME280;20031;43.416;23.232;2022-08-19T10:51:01;99496.84;;;38.92;27.98
33697;BME280;20031;43.416;23.232;2022-08-19T10:53:45;99499.22;;;38.78;27.68
33697;BME280;20031;43.416;23.232;2022-08-19T10:56:10;99494.78;;;38.89;26.68
33697;BME280;20031;43.416;23.232;2022-08-19T10:58:54;99489.13;;;38.79;26.60
33697;BME280;20031;43.416;23.232;2022-08-19T11:01:21;99484.78;;;38.59;26.79
33697;BME280;20031;43.416;23.232;2022-08-19T11:03:47;99488.31;;;38.78;27.23
33697;BME280;20031;43.416;23.232;2022-08-19T11:06:12;99484.72;;;38.74;26.96
33697;BME280;20031;43.416;23.232;2022-08-19T11:08:38;99480.19;;;38.63;27.29
33697;BME280;20031;43.416;23.232;2022-08-19T11:11:05;99471.69;;;38.64;27.62
33697;BME280;20031;43.416;23.232;2022-08-19T11:13:36;99469.13;;;38.90;28.57
33697;BME280;20031;43.416;23.232;2022-08-19T11:16:11;99465.06;;;39.18;27.49
33697;BME280;20031;43.416;23.232;2022-08-19T11:18:44;99463.63;;;39.24;27.34
33697;BME280;20031;43.416;23.232;2022-08-19T11:21:19;99462.03;;;39.23;27.18
33697;BME280;20031;43.416;23.232;2022-08-19T11:23:49;99461.91;;;39.35;27.32
33697;BME280;20031;43.416;23.232;2022-08-19T11:26:16;99454.06;;;39.52;27.21
33697;BME280;20031;43.416;23.232;2022-08-19T11:28:43;99444.78;;;39.57;25.97
33697;BME280;20031;43.416;23.232;2022-08-19T11:31:19;99450.34;;;39.83;27.16
33697;BME280;20031;43.416;23.232;2022-08-19T11:33:46;99444.50;;;39.84;25.87
33697;BME280;20031;43.416;23.232;2022-08-19T11:36:12;99442.44;;;40.00;24.91
33697;BME280;20031;43.416;23.232;2022-08-19T11:38:38;99443.75;;;39.65;24.54
33697;BME280;20031;43.416;23.232;2022-08-19T11:41:06;99438.66;;;39.63;24.50
33697;BME280;20031;43.416;23.232;2022-08-19T11:43:35;99434.59;;;39.54;24.82
33697;BME280;20031;43.416;23.232;2022-08-19T11:46:10;99443.28;;;39.82;24.68
33697;BME280;20031;43.416;23.232;2022-08-19T11:48:37;99437.66;;;39.93;24.11
33697;BME280;20031;43.416;23.232;2022-08-19T11:51:07;99427.41;;;40.13;24.30
33697;BME280;20031;43.416;23.232;2022-08-19T11:53:34;99430.25;;;40.16;24.29
33697;BME280;20031;43.416;23.232;2022-08-19T11:56:00;99421.38;;;40.48;24.92
33697;BME280;20031;43.416;23.232;2022-08-19T11:58:25;99423.91;;;40.64;24.56
33697;BME280;20031;43.416;23.232;2022-08-19T12:00:51;99418.88;;;40.66;24.27
33697;BME280;20031;43.416;23.232;2022-08-19T12:03:17;99422.47;;;40.73;24.28
33697;BME280;20031;43.416;23.232;2022-08-19T12:05:44;99419.25;;;40.64;24.18
33697;BME280;20031;43.416;23.232;2022-08-19T12:08:11;99407.44;;;40.57;25.37
33697;BME280;20031;43.416;23.232;2022-08-19T12:10:38;99400.63;;;40.73;25.30
33697;BME280;20031;43.416;23.232;2022-08-19T12:13:04;99396.28;;;40.98;25.03
33697;BME280;20031;43.416;23.232;2022-08-19T12:15:29;99400.78;;;40.87;24.36
33697;BME280;20031;43.416;23.232;2022-08-19T12:17:56;99397.03;;;40.66;23.68
33697;BME280;20031;43.416;23.232;2022-08-19T12:20:25;99401.16;;;40.56;23.18
33697;BME280;20031;43.416;23.232;2022-08-19T12:22:52;99391.41;;;40.30;22.92
33697;BME280;20031;43.416;23.232;2022-08-19T12:25:17;99385.41;;;40.17;23.13
33697;BME280;20031;43.416;23.232;2022-08-19T12:27:43;99384.53;;;40.39;23.40
33697;BME280;20031;43.416;23.232;2022-08-19T12:30:11;99388.97;;;40.50;23.51
33697;BME280;20031;43.416;23.232;2022-08-19T12:32:37;99380.41;;;40.52;22.83
33697;BME280;20031;43.416;23.232;2022-08-19T12:35:03;99378.03;;;40.50;22.17
33697;BME280;20031;43.416;23.232;2022-08-19T12:37:29;99375.66;;;40.75;22.10
33697;BME280;20031;43.416;23.232;2022-08-19T12:39:56;99376.38;;;40.68;22.25
33697;BME280;20031;43.416;23.232;2022-08-19T12:42:22;99381.84;;;40.72;22.26
33697;BME280;20031;43.416;23.232;2022-08-19T12:44:47;99372.22;;;40.52;23.05
33697;BME280;20031;43.416;23.232;2022-08-19T12:47:13;99373.38;;;40.22;22.82
33697;BME280;20031;43.416;23.232;2022-08-19T12:49:40;99375.03;;;40.30;23.07
33697;BME280;20031;43.416;23.232;2022-08-19T12:52:07;99371.03;;;40.24;22.87
33697;BME280;20031;43.416;23.232;2022-08-19T12:54:36;99365.91;;;40.48;23.31
33697;BME280;20031;43.416;23.232;2022-08-19T12:57:08;99364.78;;;40.82;23.75
33697;BME280;20031;43.416;23.232;2022-08-19T12:59:34;99363.38;;;40.95;23.73
33697;BME280;20031;43.416;23.232;2022-08-19T13:02:02;99363.22;;;40.81;23.36
33697;BME280;20031;43.416;23.232;2022-08-19T13:04:27;99361.78;;;40.57;22.96